Clare, Louisiana
Current Conditions -  °F | °C
As of 10:34 AM on Thursday 29 Jan 2015 (Local Time) from KAQV Reporting Station
Few Clouds Few Clouds  
Wind Chill: 64°   Ceiling: Unl
Heat Index: 64°   Visibility: 9mi
Dew Point: 56°   Wind: 8mph
Humidity: 75%   Direction: 230°SW
Pressure: 30.22"   Gusts: NA
Location:  31.6044°N, 93.4433°W
Report Text: KAQV 291634Z AUTO 23007KT 9SM FEW012 18/13 A3022 RMK AO2 T01780133
Loading
Personal Weather Stations






























Interactive Weather Map New forecast layout! Learn more

10-Day Weather Forecast

Advertisements
Track Severe Weather on mobile